createdAt,value
2023-05-05T00:01:02.365Z,101310.88
2023-05-05T00:03:30.168Z,101310.81
2023-05-05T00:05:58.053Z,101315.91
2023-05-05T00:08:25.833Z,101314.91
2023-05-05T00:10:54.511Z,101317.50
2023-05-05T00:13:22.303Z,101325.41
2023-05-05T00:15:53.503Z,101313.78
2023-05-05T00:18:21.456Z,101306.59
2023-05-05T00:20:49.590Z,101310.03
2023-05-05T00:23:19.205Z,101314.41
2023-05-05T00:25:47.307Z,101325.91
2023-05-05T00:28:14.876Z,101320.50
2023-05-05T00:30:42.481Z,101320.50
2023-05-05T00:33:11.154Z,101308.19
2023-05-05T00:35:38.775Z,101305.53
2023-05-05T00:38:07.250Z,101313.50
2023-05-05T00:40:35.181Z,101304.66
2023-05-05T00:43:02.921Z,101309.09
2023-05-05T00:45:30.967Z,101315.28
2023-05-05T00:48:00.855Z,101312.69
2023-05-05T00:50:31.167Z,101320.66
2023-05-05T00:53:06.489Z,101332.22
2023-05-05T00:55:35.357Z,101333.16
2023-05-05T00:58:04.408Z,101337.53
2023-05-05T01:00:32.652Z,101323.25
2023-05-05T01:03:00.599Z,101324.97
2023-05-05T01:05:51.575Z,101318.66
2023-05-05T01:08:41.114Z,101338.97
2023-05-05T01:11:26.301Z,101337.09
2023-05-05T01:14:32.089Z,101337.78
2023-05-05T01:17:25.852Z,101333.34
2023-05-05T01:20:10.525Z,101336.84
2023-05-05T01:22:51.023Z,101346.53
2023-05-05T01:26:05.600Z,101347.44
2023-05-05T01:29:03.024Z,101346.53
2023-05-05T01:31:52.278Z,101351.84
2023-05-05T01:34:28.827Z,101363.44
2023-05-05T01:37:19.040Z,101361.63
2023-05-05T01:39:55.854Z,101359.91
2023-05-05T01:42:26.739Z,101359.97
2023-05-05T01:44:56.483Z,101361.78
2023-05-05T01:47:25.517Z,101359.19
2023-05-05T01:49:53.866Z,101359.19
2023-05-05T01:52:24.237Z,101362.75
2023-05-05T01:54:53.409Z,101372.66
2023-05-05T01:57:26.476Z,101367.47
2023-05-05T01:59:56.822Z,101359.72
2023-05-05T02:02:28.972Z,101364.28
2023-05-05T02:04:59.208Z,101353.88
2023-05-05T02:07:28.239Z,101351.44
2023-05-05T02:09:56.681Z,101350.72
2023-05-05T02:12:25.467Z,101340.22
2023-05-05T02:14:54.466Z,101331.66
2023-05-05T02:17:24.058Z,101334.53
2023-05-05T02:19:53.490Z,101338.25
2023-05-05T02:22:21.089Z,101342.84
2023-05-05T02:24:48.837Z,101354.50
2023-05-05T02:27:21.609Z,101355.63
2023-05-05T02:29:53.230Z,101361.16
2023-05-05T02:32:32.452Z,101358.72
2023-05-05T02:35:15.659Z,101359.75
2023-05-05T02:37:56.765Z,101360.13
2023-05-05T02:40:30.467Z,101375.41
2023-05-05T02:43:04.753Z,101378.25
2023-05-05T02:45:32.563Z,101372.28
2023-05-05T02:48:05.151Z,101368.88
2023-05-05T02:50:37.550Z,101370.88
2023-05-05T02:53:27.124Z,101374.56
2023-05-05T02:56:08.144Z,101378.25
2023-05-05T02:58:53.118Z,101381.13
2023-05-05T03:01:36.278Z,101384.03
2023-05-05T03:04:14.674Z,101386.94
2023-05-05T03:06:53.651Z,101377.56
2023-05-05T03:09:39.806Z,101383.16
2023-05-05T03:12:13.617Z,101379.91
2023-05-05T03:15:00.746Z,101380.19
2023-05-05T03:17:32.684Z,101384.88
2023-05-05T03:20:03.405Z,101391.25
2023-05-05T03:22:37.814Z,101389.66
2023-05-05T03:25:08.080Z,101393.44
2023-05-05T03:27:35.671Z,101397.13
2023-05-05T03:30:03.825Z,101392.84
2023-05-05T03:32:33.261Z,101394.81
2023-05-05T03:35:01.019Z,101395.84
2023-05-05T03:37:32.800Z,101387.19
2023-05-05T03:40:00.739Z,101386.53
2023-05-05T03:42:28.662Z,101390.06
2023-05-05T03:44:57.169Z,101411.44
2023-05-05T03:47:25.689Z,101413.31
2023-05-05T03:49:54.602Z,101414.38
2023-05-05T03:52:22.281Z,101412.69
2023-05-05T03:54:50.001Z,101407.50
2023-05-05T03:57:17.573Z,101414.69
2023-05-05T03:59:45.106Z,101418.41
2023-05-05T04:02:13.414Z,101421.22
2023-05-05T04:04:41.231Z,101411.69
2023-05-05T04:07:09.014Z,101426.75
2023-05-05T04:09:37.300Z,101426.88
2023-05-05T04:12:06.112Z,101427.06
2023-05-05T04:14:34.012Z,101424.53
2023-05-05T04:17:02.120Z,101437.84
2023-05-05T04:19:33.775Z,101443.22
2023-05-05T04:22:03.257Z,101453.03
2023-05-05T04:24:31.323Z,101442.50
2023-05-05T04:26:59.655Z,101441.69
2023-05-05T04:29:27.982Z,101443.53
2023-05-05T04:31:56.804Z,101462.09
2023-05-05T04:34:24.847Z,101473.56
2023-05-05T04:36:52.717Z,101467.47
2023-05-05T04:39:21.624Z,101464.88
2023-05-05T04:41:50.105Z,101469.28
2023-05-05T04:44:17.736Z,101460.50
2023-05-05T04:46:45.719Z,101457.84
2023-05-05T04:49:13.245Z,101458.72
2023-05-05T04:51:42.346Z,101466.59
2023-05-05T04:54:09.982Z,101463.09
2023-05-05T04:56:37.729Z,101466.59
2023-05-05T04:59:05.333Z,101466.59
2023-05-05T05:01:33.044Z,101472.75
2023-05-05T05:04:00.835Z,101456.88
2023-05-05T05:06:29.356Z,101463.06
2023-05-05T05:08:57.092Z,101470.91
2023-05-05T05:11:24.738Z,101467.38
2023-05-05T05:13:53.101Z,101473.53
2023-05-05T05:16:21.524Z,101472.56
2023-05-05T05:18:49.365Z,101473.38
2023-05-05T05:21:17.040Z,101475.06
2023-05-05T05:23:44.847Z,101478.53
2023-05-05T05:26:12.607Z,101482.84
2023-05-05T05:28:41.603Z,101473.94
2023-05-05T05:31:09.159Z,101477.34
2023-05-05T05:33:36.856Z,101466.66
2023-05-05T05:36:05.736Z,101471.00
2023-05-05T05:38:33.499Z,101469.09
2023-05-05T05:41:09.659Z,101468.16
2023-05-05T05:43:38.561Z,101470.72
2023-05-05T05:46:08.907Z,101471.53
2023-05-05T05:48:38.229Z,101482.03
2023-05-05T05:51:05.964Z,101479.28
2023-05-05T05:53:37.441Z,101479.19
2023-05-05T05:56:05.560Z,101480.16
2023-05-05T05:58:33.161Z,101485.34
2023-05-05T06:01:00.823Z,101491.28
2023-05-05T06:03:29.838Z,101493.75
2023-05-05T06:05:58.975Z,101495.31
2023-05-05T06:08:26.976Z,101496.06
2023-05-05T06:10:56.253Z,101486.97
2023-05-05T06:13:24.391Z,101488.50
2023-05-05T06:15:53.545Z,101492.59
2023-05-05T06:18:21.267Z,101508.13
2023-05-05T06:20:50.908Z,101516.56
2023-05-05T06:23:19.782Z,101519.81
2023-05-05T06:25:54.809Z,101510.72
2023-05-05T06:28:22.648Z,101513.84
2023-05-05T06:30:50.218Z,101511.63
2023-05-05T06:33:17.768Z,101525.22
2023-05-05T06:35:45.699Z,101524.69
2023-05-05T06:38:13.292Z,101519.66
2023-05-05T06:40:40.860Z,101526.94
2023-05-05T06:43:08.432Z,101528.94
2023-05-05T06:45:43.870Z,101527.28
2023-05-05T06:48:12.391Z,101528.09
2023-05-05T06:50:40.088Z,101528.00
2023-05-05T06:53:12.132Z,101537.75
2023-05-05T06:55:45.758Z,101539.38
2023-05-05T06:58:13.393Z,101542.09
2023-05-05T07:00:41.194Z,101537.69
2023-05-05T07:03:08.965Z,101533.41
2023-05-05T07:05:36.843Z,101551.16
2023-05-05T07:08:04.544Z,101539.00
2023-05-05T07:10:33.075Z,101553.22
2023-05-05T07:13:01.046Z,101540.75
2023-05-05T07:15:29.784Z,101547.03
2023-05-05T07:17:57.943Z,101542.06
2023-05-05T07:20:25.982Z,101542.34
2023-05-05T07:22:53.554Z,101543.53
2023-05-05T07:25:21.503Z,101551.06
2023-05-05T07:27:49.122Z,101554.06
2023-05-05T07:30:18.690Z,101549.75
2023-05-05T07:32:47.095Z,101556.19
2023-05-05T07:35:14.743Z,101561.06
2023-05-05T07:37:42.467Z,101551.63
2023-05-05T07:40:10.900Z,101560.66
2023-05-05T07:42:38.972Z,101561.72
2023-05-05T07:45:07.451Z,101562.72
2023-05-05T07:47:35.077Z,101557.38
2023-05-05T07:50:02.714Z,101556.50
2023-05-05T07:52:44.258Z,101558.56
2023-05-05T07:55:15.842Z,101549.75
2023-05-05T07:57:43.577Z,101551.03
2023-05-05T08:00:13.413Z,101543.13
2023-05-05T08:02:41.465Z,101550.09
2023-05-05T08:05:09.810Z,101552.91
2023-05-05T08:07:41.184Z,101547.66
2023-05-05T08:10:11.873Z,101546.63
2023-05-05T08:12:40.496Z,101549.00
2023-05-05T08:15:08.955Z,101543.63
2023-05-05T08:17:52.025Z,101540.38
2023-05-05T08:20:21.082Z,101545.81
2023-05-05T08:22:49.680Z,101551.44
2023-05-05T08:25:17.342Z,101540.78
2023-05-05T08:27:44.973Z,101536.84
2023-05-05T08:30:13.217Z,101542.84
2023-05-05T08:32:40.895Z,101530.84
2023-05-05T08:35:09.189Z,101530.69
2023-05-05T08:37:37.033Z,101537.47
2023-05-05T08:40:06.173Z,101535.53
2023-05-05T08:42:38.678Z,101543.16
2023-05-05T08:45:09.982Z,101535.75
2023-05-05T08:47:39.600Z,101529.41
2023-05-05T08:50:11.480Z,101529.66
2023-05-05T08:52:44.331Z,101541.47
2023-05-05T08:55:27.764Z,101544.50
2023-05-05T08:57:58.036Z,101549.63
2023-05-05T09:00:27.773Z,101553.06
2023-05-05T09:03:01.363Z,101557.25
2023-05-05T09:05:29.215Z,101559.53
2023-05-05T09:07:56.941Z,101557.72
2023-05-05T09:10:26.172Z,101567.69
2023-05-05T09:12:54.249Z,101564.88
2023-05-05T09:15:21.864Z,101573.50
2023-05-05T09:17:49.477Z,101561.44
2023-05-05T09:20:17.134Z,101563.44
2023-05-05T09:22:47.651Z,101562.91
2023-05-05T09:25:18.316Z,101561.00
2023-05-05T09:27:49.223Z,101557.09
2023-05-05T09:30:24.388Z,101566.53
2023-05-05T09:32:54.699Z,101564.03
2023-05-05T09:35:23.485Z,101562.25
2023-05-05T09:37:51.056Z,101563.09
2023-05-05T09:40:22.034Z,101558.56
2023-05-05T09:43:01.866Z,101567.59
2023-05-05T09:45:29.450Z,101559.84
2023-05-05T09:48:00.163Z,101565.44
2023-05-05T09:50:30.947Z,101554.91
2023-05-05T09:53:02.111Z,101550.28
2023-05-05T09:55:33.566Z,101552.78
2023-05-05T09:58:23.662Z,101551.72
2023-05-05T10:00:52.255Z,101547.41
2023-05-05T10:03:20.850Z,101552.88
2023-05-05T10:06:00.974Z,101549.94
2023-05-05T10:08:33.485Z,101547.13
2023-05-05T10:11:07.247Z,101546.03
2023-05-05T10:13:37.929Z,101539.16
2023-05-05T10:16:13.254Z,101540.28
2023-05-05T10:18:46.522Z,101545.56
2023-05-05T10:21:21.416Z,101546.41
2023-05-05T10:24:00.351Z,101536.75
2023-05-05T10:26:34.334Z,101535.34
2023-05-05T10:29:07.958Z,101535.75
2023-05-05T10:31:49.221Z,101535.84
2023-05-05T10:34:30.080Z,101526.19
2023-05-05T10:37:00.170Z,101522.44
2023-05-05T10:39:29.014Z,101519.44
2023-05-05T10:42:03.976Z,101522.03
2023-05-05T10:44:33.185Z,101517.66
2023-05-05T10:47:02.266Z,101518.69
2023-05-05T10:49:48.924Z,101512.88
2023-05-05T10:52:42.892Z,101518.63
2023-05-05T10:55:21.362Z,101518.84
2023-05-05T10:57:53.606Z,101510.25
2023-05-05T11:00:39.616Z,101509.56
2023-05-05T11:03:16.210Z,101509.88
2023-05-05T11:06:05.795Z,101508.47
2023-05-05T11:08:39.323Z,101500.28
2023-05-05T11:11:07.671Z,101502.66
2023-05-05T11:13:35.225Z,101496.66
2023-05-05T11:16:03.216Z,101502.38
2023-05-05T11:18:37.680Z,101505.34
2023-05-05T11:21:17.245Z,101513.63
2023-05-05T11:23:45.599Z,101524.59
2023-05-05T11:26:14.977Z,101520.19
2023-05-05T11:29:03.959Z,101514.88
2023-05-05T11:31:33.470Z,101528.06
2023-05-05T11:34:28.436Z,101544.75
2023-05-05T11:37:03.290Z,101548.47
2023-05-05T11:40:03.129Z,101556.84
2023-05-05T11:42:30.928Z,101569.34
2023-05-05T11:44:59.218Z,101574.41
2023-05-05T11:47:29.486Z,101584.31
2023-05-05T11:49:57.847Z,101600.38
2023-05-05T11:52:27.210Z,101601.72
2023-05-05T11:55:01.453Z,101594.81
2023-05-05T11:57:30.450Z,101589.75
2023-05-05T12:00:04.963Z,101596.63
2023-05-05T12:02:56.910Z,101605.88
2023-05-05T12:05:24.872Z,101608.00
2023-05-05T12:07:57.926Z,101592.31
2023-05-05T12:10:25.814Z,101600.72
2023-05-05T12:12:56.457Z,101589.53
2023-05-05T12:15:32.439Z,101599.63
2023-05-05T12:18:02.412Z,101613.19
2023-05-05T12:20:33.314Z,101595.72
2023-05-05T12:23:03.128Z,101601.16
2023-05-05T12:25:36.878Z,101600.28
2023-05-05T12:28:09.007Z,101600.28
2023-05-05T12:30:37.197Z,101608.06
2023-05-05T12:33:08.225Z,101602.50
2023-05-05T12:35:37.076Z,101591.78
2023-05-05T12:38:04.754Z,101587.25
2023-05-05T12:40:53.783Z,101588.84
2023-05-05T12:43:30.483Z,101586.22
2023-05-05T12:46:07.141Z,101577.28
2023-05-05T12:48:38.066Z,101566.72
2023-05-05T12:51:23.613Z,101571.16
2023-05-05T12:54:11.523Z,101565.00
2023-05-05T12:56:45.541Z,101563.94
2023-05-05T12:59:33.365Z,101567.22
2023-05-05T13:02:03.715Z,101565.41
2023-05-05T13:04:32.827Z,101569.00
2023-05-05T13:07:13.166Z,101573.50
2023-05-05T13:09:41.544Z,101577.09
2023-05-05T13:12:12.091Z,101578.84
2023-05-05T13:14:41.493Z,101575.25
2023-05-05T13:17:10.892Z,101585.13
2023-05-05T13:19:42.558Z,101591.50
2023-05-05T13:22:10.319Z,101590.78
2023-05-05T13:24:50.943Z,101597.13
2023-05-05T13:27:20.657Z,101597.34
2023-05-05T13:29:48.492Z,101612.50
2023-05-05T13:32:16.129Z,101605.41
2023-05-05T13:34:44.155Z,101608.06
2023-05-05T13:37:11.862Z,101612.38
2023-05-05T13:39:39.435Z,101606.88
2023-05-05T13:42:06.975Z,101608.44
2023-05-05T13:44:35.378Z,101596.81
2023-05-05T13:47:04.525Z,101597.66
2023-05-05T13:49:32.114Z,101596.06
2023-05-05T13:51:59.718Z,101592.63
2023-05-05T13:54:28.119Z,101592.75
2023-05-05T13:56:55.702Z,101599.91
2023-05-05T13:59:23.303Z,101608.75
2023-05-05T14:01:50.854Z,101606.22
2023-05-05T14:04:27.881Z,101610.81
2023-05-05T14:06:58.134Z,101615.47
2023-05-05T14:09:26.891Z,101615.63
2023-05-05T14:11:54.472Z,101614.88
2023-05-05T14:14:22.024Z,101609.69
2023-05-05T14:16:50.372Z,101603.41
2023-05-05T14:19:18.187Z,101601.44
2023-05-05T14:21:45.999Z,101592.44
2023-05-05T14:24:13.544Z,101607.22
2023-05-05T14:26:41.133Z,101606.06
2023-05-05T14:29:08.821Z,101603.19
2023-05-05T14:31:36.760Z,101595.03
2023-05-05T14:34:04.365Z,101599.19
2023-05-05T14:36:32.020Z,101594.31
2023-05-05T14:38:59.649Z,101590.75
2023-05-05T14:41:27.175Z,101581.97
2023-05-05T14:43:54.752Z,101569.25
2023-05-05T14:46:22.588Z,101563.69
2023-05-05T14:48:50.366Z,101553.09
2023-05-05T14:51:18.002Z,101551.47
2023-05-05T14:53:45.785Z,101554.38
2023-05-05T14:56:13.857Z,101565.22
2023-05-05T14:58:41.730Z,101559.22
2023-05-05T15:01:09.814Z,101560.97
2023-05-05T15:03:37.581Z,101557.41
2023-05-05T15:06:05.553Z,101558.09
2023-05-05T15:08:33.190Z,101561.50
2023-05-05T15:11:01.176Z,101565.78
2023-05-05T15:13:29.717Z,101568.53
2023-05-05T15:15:57.353Z,101558.28
2023-05-05T15:18:25.055Z,101555.91
2023-05-05T15:20:52.640Z,101562.25
2023-05-05T15:23:20.199Z,101558.06
2023-05-05T15:25:47.763Z,101550.28
2023-05-05T15:28:15.467Z,101538.06
2023-05-05T15:30:43.071Z,101528.44
2023-05-05T15:33:10.699Z,101530.38
2023-05-05T15:35:38.463Z,101525.00
2023-05-05T15:38:06.268Z,101532.84
2023-05-05T15:40:33.922Z,101535.41
2023-05-05T15:43:01.593Z,101541.41
2023-05-05T15:45:29.117Z,101534.00
2023-05-05T15:47:56.745Z,101536.28
2023-05-05T15:50:24.384Z,101532.59
2023-05-05T15:52:52.019Z,101532.25
2023-05-05T15:55:19.574Z,101529.94
2023-05-05T15:57:47.114Z,101521.44
2023-05-05T16:00:15.234Z,101528.75
2023-05-05T16:02:42.865Z,101518.41
2023-05-05T16:05:11.047Z,101531.16
2023-05-05T16:07:39.454Z,101517.56
2023-05-05T16:10:08.278Z,101514.59
2023-05-05T16:12:35.841Z,101519.44
2023-05-05T16:15:03.499Z,101526.91
2023-05-05T16:17:31.235Z,101515.22
2023-05-05T16:19:58.970Z,101516.00
2023-05-05T16:22:26.773Z,101519.56
2023-05-05T16:24:54.346Z,101516.28
2023-05-05T16:27:22.340Z,101518.25
2023-05-05T16:29:49.898Z,101518.16
2023-05-05T16:32:17.428Z,101521.47
2023-05-05T16:34:45.230Z,101521.03
2023-05-05T16:37:13.291Z,101524.94
2023-05-05T16:39:41.526Z,101530.38
2023-05-05T16:42:09.084Z,101518.28
2023-05-05T16:44:36.667Z,101523.19
2023-05-05T16:47:04.469Z,101519.56
2023-05-05T16:49:31.995Z,101523.84
2023-05-05T16:51:59.587Z,101526.06
2023-05-05T16:54:27.131Z,101527.78
2023-05-05T16:56:55.122Z,101524.63
2023-05-05T16:59:22.697Z,101523.91
2023-05-05T17:01:50.380Z,101523.97
2023-05-05T17:04:17.924Z,101527.09
2023-05-05T17:06:45.986Z,101521.19
2023-05-05T17:09:13.583Z,101525.31
2023-05-05T17:11:41.102Z,101519.88
2023-05-05T17:14:08.731Z,101518.06
2023-05-05T17:16:36.905Z,101525.19
2023-05-05T17:19:04.534Z,101525.81
2023-05-05T17:21:32.821Z,101513.16
2023-05-05T17:24:01.394Z,101515.03
2023-05-05T17:26:30.724Z,101519.78
2023-05-05T17:28:58.240Z,101526.28
2023-05-05T17:31:26.010Z,101525.50
2023-05-05T17:33:53.665Z,101524.47
2023-05-05T17:36:21.214Z,101518.22
2023-05-05T17:38:48.737Z,101509.34
2023-05-05T17:41:16.641Z,101514.97
2023-05-05T17:43:44.395Z,101509.94
2023-05-05T17:46:12.052Z,101508.47
2023-05-05T17:48:39.626Z,101521.91
2023-05-05T17:51:07.219Z,101511.50
2023-05-05T17:53:34.842Z,101521.59
2023-05-05T17:56:02.566Z,101525.47
2023-05-05T17:58:30.245Z,101517.94
2023-05-05T18:00:57.826Z,101521.00
2023-05-05T18:03:25.556Z,101520.50
2023-05-05T18:05:53.121Z,101528.69
2023-05-05T18:08:20.759Z,101532.63
2023-05-05T18:10:48.335Z,101523.97
2023-05-05T18:13:15.943Z,101521.59
2023-05-05T18:15:43.616Z,101531.44
2023-05-05T18:18:11.249Z,101530.78
2023-05-05T18:20:38.816Z,101524.00
2023-05-05T18:23:06.389Z,101524.38
2023-05-05T18:25:33.985Z,101526.34
2023-05-05T18:28:01.523Z,101533.56
2023-05-05T18:30:29.169Z,101537.19
2023-05-05T18:32:56.831Z,101538.19
2023-05-05T18:35:24.529Z,101530.31
2023-05-05T18:37:52.392Z,101531.34
2023-05-05T18:40:19.929Z,101528.91
2023-05-05T18:42:47.492Z,101534.47
2023-05-05T18:45:15.349Z,101535.66
2023-05-05T18:47:42.968Z,101538.66
2023-05-05T18:50:10.773Z,101541.63
2023-05-05T18:52:41.021Z,101555.09
2023-05-05T18:55:09.036Z,101548.22
2023-05-05T18:57:36.700Z,101554.69
2023-05-05T19:00:04.882Z,101550.53
2023-05-05T19:02:32.521Z,101552.47
2023-05-05T19:05:00.201Z,101553.56
2023-05-05T19:07:35.323Z,101553.81
2023-05-05T19:10:05.055Z,101556.00
2023-05-05T19:12:32.928Z,101553.63
2023-05-05T19:15:01.289Z,101552.13
2023-05-05T19:17:28.885Z,101562.03
2023-05-05T19:19:56.478Z,101567.59
2023-05-05T19:22:24.084Z,101573.19
2023-05-05T19:24:51.672Z,101577.91
2023-05-05T19:27:19.264Z,101585.28
2023-05-05T19:29:51.986Z,101588.16
2023-05-05T19:32:21.603Z,101589.31
2023-05-05T19:34:49.299Z,101582.47
2023-05-05T19:37:16.840Z,101582.69
2023-05-05T19:39:45.673Z,101580.25
2023-05-05T19:42:14.490Z,101583.94
2023-05-05T19:44:42.417Z,101586.78
2023-05-05T19:47:10.952Z,101587.00
2023-05-05T19:49:38.873Z,101585.50
2023-05-05T19:52:06.430Z,101591.91
2023-05-05T19:54:34.049Z,101587.69
2023-05-05T19:57:01.945Z,101597.59
2023-05-05T19:59:29.580Z,101596.09
2023-05-05T20:01:57.253Z,101593.56
2023-05-05T20:04:25.456Z,101587.56
2023-05-05T20:06:53.069Z,101587.72
2023-05-05T20:09:20.589Z,101600.31
2023-05-05T20:11:48.116Z,101589.91
2023-05-05T20:14:15.776Z,101592.72
2023-05-05T20:16:43.324Z,101595.59
2023-05-05T20:19:10.929Z,101594.84
2023-05-05T20:21:38.467Z,101595.00
2023-05-05T20:24:07.421Z,101595.13
2023-05-05T20:26:34.960Z,101596.16
2023-05-05T20:29:03.005Z,101585.75
2023-05-05T20:31:30.983Z,101585.94
2023-05-05T20:33:58.507Z,101581.69
2023-05-05T20:36:26.713Z,101582.72
2023-05-05T20:38:54.393Z,101589.94
2023-05-05T20:41:22.104Z,101591.84
2023-05-05T20:43:49.746Z,101590.19
2023-05-05T20:46:17.563Z,101582.41
2023-05-05T20:48:45.173Z,101579.91
2023-05-05T20:51:12.865Z,101578.31
2023-05-05T20:53:40.636Z,101578.41
2023-05-05T20:56:09.114Z,101573.28
2023-05-05T20:58:36.943Z,101575.97
2023-05-05T21:01:04.597Z,101569.94
2023-05-05T21:03:32.228Z,101570.88
2023-05-05T21:05:59.912Z,101571.88
2023-05-05T21:08:29.099Z,101579.03
2023-05-05T21:10:56.625Z,101579.13
2023-05-05T21:13:24.449Z,101578.38
2023-05-05T21:15:52.182Z,101580.28
2023-05-05T21:18:19.762Z,101575.16
2023-05-05T21:20:47.368Z,101585.00
2023-05-05T21:23:14.977Z,101589.50
2023-05-05T21:25:42.517Z,101577.34
2023-05-05T21:28:10.075Z,101580.91
2023-05-05T21:30:38.105Z,101585.44
2023-05-05T21:33:05.771Z,101589.03
2023-05-05T21:35:33.397Z,101587.38
2023-05-05T21:38:01.402Z,101576.91
2023-05-05T21:40:29.053Z,101589.28
2023-05-05T21:42:56.578Z,101580.59
2023-05-05T21:45:24.065Z,101578.88
2023-05-05T21:47:51.650Z,101581.53
2023-05-05T21:50:19.674Z,101574.53
2023-05-05T21:52:47.361Z,101570.22
2023-05-05T21:55:15.083Z,101579.94
2023-05-05T21:57:42.610Z,101572.97
2023-05-05T22:00:16.519Z,101573.00
2023-05-05T22:02:45.424Z,101566.91
2023-05-05T22:05:13.398Z,101569.53
2023-05-05T22:07:41.012Z,101567.78
2023-05-05T22:10:09.341Z,101569.53
2023-05-05T22:12:37.150Z,101567.75
2023-05-05T22:15:05.636Z,101571.31
2023-05-05T22:17:33.250Z,101571.25
2023-05-05T22:20:00.809Z,101574.81
2023-05-05T22:22:28.351Z,101572.19
2023-05-05T22:24:56.119Z,101571.25
2023-05-05T22:27:23.843Z,101572.09
2023-05-05T22:29:51.499Z,101570.38
2023-05-05T22:32:20.452Z,101565.94
2023-05-05T22:34:48.393Z,101567.72
2023-05-05T22:37:16.200Z,101558.00
2023-05-05T22:39:43.941Z,101559.72
2023-05-05T22:42:11.790Z,101566.75
2023-05-05T22:44:39.429Z,101558.81
2023-05-05T22:47:07.099Z,101566.66
2023-05-05T22:49:35.122Z,101552.63
2023-05-05T22:52:02.745Z,101552.59
2023-05-05T22:54:30.304Z,101555.22
2023-05-05T22:56:57.887Z,101553.44
2023-05-05T22:59:25.549Z,101552.59
2023-05-05T23:01:53.104Z,101548.19
2023-05-05T23:04:20.738Z,101554.38
2023-05-05T23:06:48.404Z,101556.13
2023-05-05T23:09:15.934Z,101548.25
2023-05-05T23:11:43.467Z,101557.19
2023-05-05T23:14:11.105Z,101546.91
2023-05-05T23:16:38.677Z,101547.91
2023-05-05T23:19:06.227Z,101549.75
2023-05-05T23:21:38.936Z,101548.09
2023-05-05T23:24:13.234Z,101550.88
2023-05-05T23:26:40.891Z,101555.31
2023-05-05T23:29:08.413Z,101557.97
2023-05-05T23:31:35.940Z,101557.06
2023-05-05T23:34:03.469Z,101564.94
2023-05-05T23:36:31.167Z,101571.09
2023-05-05T23:38:58.878Z,101565.84
2023-05-05T23:41:26.389Z,101563.22
2023-05-05T23:43:54.046Z,101562.34
2023-05-05T23:46:21.693Z,101565.00
2023-05-05T23:48:50.402Z,101550.97
2023-05-05T23:51:18.030Z,101555.31
2023-05-05T23:53:45.650Z,101558.84
2023-05-05T23:56:13.272Z,101560.59
2023-05-05T23:58:40.799Z,101552.66
